• Join FlightAware (Why Join?)
  • Login
  • US Flag 
04:32AM EST


 

Airport Tracker/Info


-or-


 

Live Flight TrackerFlight Track Log ✈ N53NW ✈ 22-Oct-2013 ✈ KLIT - KAAO

Flight Track Log - Related Links

Times and Time Zones

All times are in EDT time to prevent confusion due to time zone crossing. See the N53NW flight status page for this flight to view local times or setup timezone preferences in your user account.

Time Position Orientation Groundspeed Altitude Reporting Facility
EDT Latitude Longitude Course Direction KTS MPH feet Rate Location/Type
01:27PM 34.7167 -92.2400 224° Southwest 184 212 1,100  Level Memphis Center
01:28PM 34.6847 -92.2775 224° Southwest 232 267 3,700 3,240 Climbing Memphis Center
01:29PM 34.6814 -92.3028 261° West 250 288 5,000 3,960 Climbing Memphis Center
01:29PM 34.6714 -92.3542 257° West 250 288 7,700 4,200 Climbing Memphis Center
01:30PM 34.6650 -92.3828 255° West 245 282 9,400 3,600 Climbing Memphis Center
01:31PM 34.6478 -92.4689 256° West 256 295 13,000 3,420 Climbing Memphis Center
01:32PM 34.6450 -92.5592 268° West 280 322 16,500 3,000 Climbing Memphis Center
01:33PM 34.7036 -92.6181 320° Northwest 273 314 19,200 2,760 Climbing Memphis Center
01:34PM 34.7758 -92.6867 322° Northwest 274 315 22,300 2,580 Climbing Memphis Center
01:35PM 34.8381 -92.7458 322° Northwest 280 322 24,600 2,160 Climbing Memphis Center
01:36PM 34.9022 -92.8086 321° Northwest 291 335 26,800 2,100 Climbing Memphis Center
01:37PM 34.9683 -92.8711 322° Northwest 298 343 29,000 1,500 Climbing Memphis Center
01:38PM 35.0339 -92.9356 321° Northwest 300 345 30,000 480 Climbing Memphis Center
01:39PM 35.1108 -93.0092 322° Northwest 338 389 30,000  Level Memphis Center
01:40PM 35.2036 -93.0994 322° Northwest 360 414 30,000  Level Memphis Center
01:41PM 35.2825 -93.1747 322° Northwest 360 414 30,000  Level Memphis Center
01:42PM 35.3600 -93.2506 321° Northwest 358 412 30,000  Level Memphis Center
01:43PM 35.4364 -93.3242 322° Northwest 353 406 30,000  Level Memphis Center
01:44PM 35.5189 -93.4028 322° Northwest 347 399 30,000  Level Memphis Center
01:45PM 35.5947 -93.4775 321° Northwest 348 400 30,000  Level Memphis Center
01:46PM 35.6703 -93.5514 322° Northwest 348 400 30,000  Level Memphis Center
01:47PM 35.7458 -93.6264 321° Northwest 348 400 30,000  Level Memphis Center
01:48PM 35.8356 -93.7133 322° Northwest 344 396 30,000  Level Memphis Center
01:49PM 35.9103 -93.7892 321° Northwest 346 398 30,000  Level Memphis Center
01:50PM 35.9872 -93.8614 323° Northwest 347 399 30,000  Level Memphis Center
01:51PM 36.0614 -93.9367 321° Northwest 346 398 30,000  Level Memphis Center
01:52PM 36.1353 -94.0119 321° Northwest 346 398 30,000  Level Memphis Center
01:53PM 36.2169 -94.0939 321° Northwest 347 399 30,000  Level Memphis Center
01:54PM 36.2817 -94.1822 312° West 345 397 30,000  Level Memphis Center
01:56PM 36.3350 -94.2822 304° West 348 400 30,000  Level Memphis Center
01:57PM 36.4031 -94.3989 305° West 345 397 30,000  Level Kansas City Center
01:58PM 36.4294 -94.4501 305° West  Level FlightAware Approximate
01:58PM 36.4567 -94.4967 304° West 344 396 30,000  Level Kansas City Center
01:59PM 36.5111 -94.5944 305° West 344 396 30,000  Level Kansas City Center
02:00PM 36.5644 -94.6911 305° West 342 394 30,000  Level Kansas City Center
02:01PM 36.6194 -94.7886 305° West 344 396 30,000  Level Kansas City Center
02:02PM 36.6819 -94.9061 304° West 341 392 30,000  Level Kansas City Center
02:03PM 36.7369 -95.0019 306° West 342 394 30,000  Level Kansas City Center
02:04PM 36.7894 -95.1000 304° West 341 392 30,000 -240 Level Kansas City Center
02:05PM 36.7669 -95.0554 305° West  Level FlightAware Approximate
02:05PM 36.8417 -95.1947 305° West 337 388 29,500  Level Kansas City Center
02:06PM 36.8906 -95.2864 304° West 326 375 28,400 -1,200 Descending Kansas City Center
02:07PM 36.9456 -95.3892 304° West 305 351 27,100 -1,260 Descending Kansas City Center
02:08PM 36.9919 -95.4747 304° West 300 345 25,900 -1,200 Descending Kansas City Center
02:09PM 37.0386 -95.5617 304° West 300 345 24,700 -1,020 Descending Kansas City Center
02:10PM 37.0850 -95.6478 304° West 299 344 23,900 -1,140 Descending Kansas City Center
02:11PM 37.1311 -95.7333 304° West 297 342 22,400 -1,500 Descending Kansas City Center
02:12PM 37.1764 -95.8167 304° West 292 336 20,900 -1,560 Descending Kansas City Center
02:13PM 37.2269 -95.9119 284° West 278 320 19,200 -1,560 Descending Kansas City Center
02:14PM 37.2330 -95.9470 304° West  Level FlightAware Approximate
02:14PM 37.2711 -95.9942 304° West 282 325 17,700  Level Kansas City Center
02:15PM 37.3156 -96.0783 304° West 286 329 16,200 -1,500 Descending Kansas City Center
02:16PM 37.3592 -96.1614 303° West 285 328 14,700 -1,500 Descending Kansas City Center
02:17PM 37.4008 -96.2408 303° West 276 318 13,200 -1,500 Descending Kansas City Center
02:18PM 37.4400 -96.3175 303° West 266 306 11,700 -1,080 Descending Kansas City Center
02:19PM 37.4814 -96.3950 304° West 266 306 11,000 -360 Descending Kansas City Center
02:20PM 37.5239 -96.4756 304° West 263 303 11,000  Level Kansas City Center
02:21PM 37.5681 -96.5572 284° West  Level FlightAware Approximate
02:21PM 37.5458 -96.5181 303° West 262 302 11,000  Level Kansas City Center
02:22PM 37.5888 -96.6606 284° West  Level FlightAware Approximate
02:22PM 37.5742 -96.5875 297° West 267 307 11,000  Level Kansas City Center
02:22PM 37.5925 -96.6547 289° West 258 297 9,800 -1,620 Descending Kansas City Center
02:23PM 37.5978 -96.6708 292° West 252 290 9,400 -1,860 Descending Kansas City Center
02:23PM 37.6158 -96.7350 290° West 247 284 7,900 -1,920 Descending Kansas City Center
02:24PM 37.6244 -96.7667 289° West 236 272 7,100 -1,860 Descending Kansas City Center
02:25PM 37.6356 -96.8122 287° West 236 272 6,000 -1,920 Descending Kansas City Center
02:25PM 37.6392 -96.8278 286° West 229 264 5,600 -1,680 Descending Kansas City Center
02:26PM 37.6617 -96.9036 291° West 234 269 4,100 -840 Descending Kansas City Center
02:27PM 37.6789 -96.9622 290° West 229 264 4,000 -120 Descending Kansas City Center
02:27PM 37.6828 -96.9875 281° West 214 246 4,000  Level Kansas City Center
02:28PM 37.7022 -97.0531 291° West 203 234 4,000  Level Kansas City Center
02:29PM 37.7178 -97.1114 289° West 213 245 4,000  Level Kansas City Center